createdAt,value
2018-04-23T00:01:57.143Z,16.18
2018-04-23T00:04:25.495Z,16.13
2018-04-23T00:06:53.845Z,16.08
2018-04-23T00:09:22.187Z,16.06
2018-04-23T00:11:50.537Z,16.05
2018-04-23T00:14:18.864Z,16.00
2018-04-23T00:16:47.207Z,15.99
2018-04-23T00:19:15.582Z,16.04
2018-04-23T00:21:43.885Z,16.09
2018-04-23T00:24:12.238Z,16.09
2018-04-23T00:26:40.593Z,16.10
2018-04-23T00:29:08.917Z,16.18
2018-04-23T00:31:37.244Z,16.22
2018-04-23T00:34:06.387Z,16.21
2018-04-23T00:36:34.757Z,16.25
2018-04-23T00:39:03.065Z,16.46
2018-04-23T00:41:31.399Z,16.44
2018-04-23T00:43:59.774Z,16.24
2018-04-23T00:46:28.105Z,16.15
2018-04-23T00:48:56.448Z,16.18
2018-04-23T00:51:24.775Z,16.24
2018-04-23T00:53:53.117Z,16.29
2018-04-23T00:56:21.476Z,16.28
2018-04-23T00:58:49.858Z,16.37
2018-04-23T01:01:18.209Z,16.52
2018-04-23T01:03:46.525Z,16.57
2018-04-23T01:06:14.904Z,16.58
2018-04-23T01:08:43.246Z,16.55
2018-04-23T01:11:11.633Z,16.57
2018-04-23T01:13:39.972Z,16.55
2018-04-23T01:16:09.118Z,16.48
2018-04-23T01:18:37.473Z,16.48
2018-04-23T01:21:05.850Z,16.52
2018-04-23T01:23:34.194Z,16.60
2018-04-23T01:26:03.338Z,16.49
2018-04-23T01:28:31.706Z,16.27
2018-04-23T01:31:00.016Z,15.91
2018-04-23T01:33:28.373Z,15.88
2018-04-23T01:35:56.710Z,15.83
2018-04-23T01:38:25.854Z,15.81
2018-04-23T01:40:54.206Z,15.70
2018-04-23T01:43:22.542Z,15.66
2018-04-23T01:45:50.887Z,15.57
2018-04-23T01:48:19.266Z,15.55
2018-04-23T01:50:47.762Z,15.49
2018-04-23T01:53:16.086Z,15.50
2018-04-23T01:55:45.578Z,15.48
2018-04-23T01:58:14.020Z,15.41
2018-04-23T02:00:42.365Z,15.35
2018-04-23T02:03:10.700Z,15.33
2018-04-23T02:05:39.868Z,15.34
2018-04-23T02:08:08.266Z,15.27
2018-04-23T02:10:36.580Z,15.13
2018-04-23T02:13:05.814Z,15.05
2018-04-23T02:15:34.153Z,15.03
2018-04-23T02:18:03.461Z,14.95
2018-04-23T02:20:31.933Z,14.86
2018-04-23T02:23:01.029Z,14.75
2018-04-23T02:25:30.770Z,14.62
2018-04-23T02:28:02.324Z,14.56
2018-04-23T02:30:30.678Z,14.48
2018-04-23T02:32:59.012Z,14.43
2018-04-23T02:35:27.466Z,14.38
2018-04-23T02:37:55.830Z,14.27
2018-04-23T02:40:24.140Z,14.16
2018-04-23T02:42:52.456Z,14.08
2018-04-23T02:45:21.137Z,14.03
2018-04-23T02:47:49.472Z,13.95
2018-04-23T02:50:17.782Z,13.84
2018-04-23T02:52:46.890Z,13.69
2018-04-23T02:55:15.981Z,13.68
2018-04-23T02:57:45.159Z,13.63
2018-04-23T03:00:13.473Z,13.50
2018-04-23T03:02:41.876Z,13.37
2018-04-23T03:05:10.613Z,13.31
2018-04-23T03:07:39.712Z,13.22
2018-04-23T03:10:08.862Z,13.13
2018-04-23T03:12:37.205Z,13.08
2018-04-23T03:15:05.602Z,13.06
2018-04-23T03:17:33.938Z,13.03
2018-04-23T03:20:03.143Z,13.02
2018-04-23T03:22:31.512Z,13.03
2018-04-23T03:24:59.863Z,13.04
2018-04-23T03:27:28.311Z,13.05
2018-04-23T03:29:56.665Z,13.02
2018-04-23T03:32:26.128Z,13.00
2018-04-23T03:34:54.449Z,12.98
2018-04-23T03:37:22.813Z,12.98
2018-04-23T03:39:51.116Z,12.97
2018-04-23T03:42:19.474Z,12.96
2018-04-23T03:44:47.813Z,13.02
2018-04-23T03:47:16.189Z,13.13
2018-04-23T03:49:44.652Z,13.28
2018-04-23T03:52:12.973Z,13.42
2018-04-23T03:54:42.296Z,13.54
2018-04-23T03:57:10.668Z,13.59
2018-04-23T03:59:39.037Z,13.63
2018-04-23T04:02:08.116Z,13.73
2018-04-23T04:04:37.235Z,13.76
2018-04-23T04:07:05.579Z,13.76
2018-04-23T04:09:33.893Z,13.75
2018-04-23T04:12:20.105Z,13.76
2018-04-23T04:15:06.081Z,13.83
2018-04-23T04:21:03.858Z,14.28
2018-04-23T04:23:32.219Z,14.49
2018-04-23T04:26:01.345Z,14.65
2018-04-23T04:28:29.695Z,14.80
2018-04-23T04:30:58.797Z,14.89
2018-04-23T04:33:27.917Z,14.99
2018-04-23T04:35:56.269Z,15.03
2018-04-23T04:38:25.347Z,15.07
2018-04-23T04:40:53.701Z,15.05
2018-04-23T04:43:22.065Z,15.01
2018-04-23T04:45:50.450Z,14.96
2018-04-23T04:48:18.773Z,14.96
2018-04-23T04:50:48.639Z,14.95
2018-04-23T04:53:16.967Z,14.98
2018-04-23T04:55:46.117Z,15.02
2018-04-23T04:58:14.461Z,15.10
2018-04-23T05:00:43.929Z,15.17
2018-04-23T05:03:13.044Z,15.32
2018-04-23T05:05:41.379Z,15.49
2018-04-23T05:08:09.742Z,15.64
2018-04-23T05:10:38.080Z,15.82
2018-04-23T05:13:06.452Z,15.94
2018-04-23T05:15:36.192Z,16.05
2018-04-23T05:18:04.544Z,16.10
2018-04-23T05:20:33.419Z,16.07
2018-04-23T05:23:02.534Z,16.02
2018-04-23T05:25:30.876Z,16.05
2018-04-23T05:27:59.257Z,16.03
2018-04-23T05:30:27.605Z,16.01
2018-04-23T05:32:55.976Z,16.01
2018-04-23T05:35:24.339Z,15.90
2018-04-23T05:37:52.670Z,15.87
2018-04-23T05:40:20.985Z,15.77
2018-04-23T05:42:49.341Z,15.89
2018-04-23T05:45:18.490Z,16.10
2018-04-23T05:47:46.823Z,16.36
2018-04-23T05:50:15.157Z,16.59
2018-04-23T05:52:43.938Z,17.02
2018-04-23T05:55:12.387Z,17.52
2018-04-23T05:57:41.526Z,18.08
2018-04-23T06:00:10.640Z,18.55
2018-04-23T06:02:39.776Z,18.64
2018-04-23T06:05:09.275Z,18.47
2018-04-23T06:07:37.624Z,17.96
2018-04-23T06:10:06.729Z,17.83
2018-04-23T06:12:35.818Z,17.66
2018-04-23T06:15:04.944Z,17.53
2018-04-23T06:17:33.298Z,17.50
2018-04-23T06:20:02.401Z,17.62
2018-04-23T06:22:30.797Z,18.12
2018-04-23T06:24:59.112Z,18.98
2018-04-23T06:27:27.468Z,19.64
2018-04-23T06:29:55.820Z,19.79
2018-04-23T06:32:24.147Z,19.44
2018-04-23T06:34:52.477Z,19.01
2018-04-23T06:37:20.803Z,18.73
2018-04-23T06:39:49.170Z,18.73
2018-04-23T06:42:17.526Z,18.91
2018-04-23T06:44:45.851Z,19.18
2018-04-23T06:47:15.018Z,19.40
2018-04-23T06:49:43.352Z,19.72
2018-04-23T06:52:11.713Z,19.98
2018-04-23T06:54:40.818Z,20.11
2018-04-23T06:57:09.190Z,20.21
2018-04-23T06:59:37.556Z,20.38
2018-04-23T07:02:06.687Z,20.56
2018-04-23T07:04:35.021Z,20.60
2018-04-23T07:07:03.355Z,20.54
2018-04-23T07:09:31.714Z,20.86
2018-04-23T07:12:00.039Z,21.33
2018-04-23T07:14:28.416Z,21.48
2018-04-23T07:16:56.762Z,21.26
2018-04-23T07:19:25.118Z,21.03
2018-04-23T07:21:53.420Z,20.92
2018-04-23T07:24:21.778Z,21.13
2018-04-23T07:26:50.120Z,21.37
2018-04-23T07:29:19.242Z,21.52
2018-04-23T07:31:47.575Z,22.00
2018-04-23T07:34:15.961Z,22.54
2018-04-23T07:36:44.305Z,22.57
2018-04-23T07:39:12.666Z,22.46
2018-04-23T07:41:41.031Z,22.65
2018-04-23T07:44:09.342Z,23.21
2018-04-23T07:46:37.691Z,23.60
2018-04-23T07:49:06.016Z,23.73
2018-04-23T07:51:34.362Z,23.66
2018-04-23T07:54:02.726Z,23.59
2018-04-23T07:56:31.041Z,23.47
2018-04-23T07:58:59.396Z,23.38
2018-04-23T08:01:27.755Z,22.98
2018-04-23T08:03:56.096Z,22.76
2018-04-23T08:06:24.454Z,22.86
2018-04-23T08:08:52.834Z,22.99
2018-04-23T08:11:21.264Z,23.43
2018-04-23T08:13:49.658Z,23.53
2018-04-23T08:16:18.748Z,24.17
2018-04-23T08:18:47.114Z,24.76
2018-04-23T08:21:15.431Z,25.20
2018-04-23T08:23:43.792Z,25.64
2018-04-23T08:26:12.128Z,25.72
2018-04-23T08:28:41.211Z,25.70
2018-04-23T08:31:09.585Z,25.57
2018-04-23T08:33:38.005Z,25.51
2018-04-23T08:36:06.331Z,25.28
2018-04-23T08:38:34.707Z,24.72
2018-04-23T08:41:03.058Z,24.43
2018-04-23T08:43:31.774Z,24.16
2018-04-23T08:46:00.201Z,23.87
2018-04-23T08:48:30.150Z,23.76
2018-04-23T08:50:58.499Z,23.87
2018-04-23T08:53:26.923Z,23.82
2018-04-23T08:55:55.295Z,23.71
2018-04-23T08:58:26.768Z,23.60
2018-04-23T09:00:55.711Z,24.07
2018-04-23T09:03:25.204Z,24.63
2018-04-23T09:05:53.591Z,25.23
2018-04-23T09:08:21.955Z,25.58
2018-04-23T09:10:51.346Z,25.81
2018-04-23T09:13:20.039Z,25.52
2018-04-23T09:15:48.428Z,25.21
2018-04-23T09:18:16.810Z,24.75
2018-04-23T09:20:46.187Z,24.34
2018-04-23T09:23:14.621Z,24.37
2018-04-23T09:25:43.974Z,24.40
2018-04-23T09:28:12.922Z,24.95
2018-04-23T09:30:41.234Z,25.40
2018-04-23T09:33:10.358Z,25.34
2018-04-23T09:35:39.203Z,25.02
2018-04-23T09:38:09.162Z,24.73
2018-04-23T09:40:37.580Z,25.18
2018-04-23T09:43:07.495Z,25.92
2018-04-23T09:45:36.629Z,25.92
2018-04-23T09:48:05.429Z,26.28
2018-04-23T09:50:33.753Z,26.49
2018-04-23T09:53:02.513Z,26.32
2018-04-23T09:55:30.874Z,26.40
2018-04-23T09:57:59.200Z,26.89
2018-04-23T10:00:32.128Z,27.22
2018-04-23T10:03:07.179Z,26.90
2018-04-23T10:05:35.876Z,25.95
2018-04-23T10:08:04.211Z,25.70
2018-04-23T10:10:34.022Z,25.74
2018-04-23T10:13:04.022Z,25.37
2018-04-23T10:15:33.156Z,24.99
2018-04-23T10:18:01.565Z,25.19
2018-04-23T10:20:29.932Z,25.34
2018-04-23T10:22:59.463Z,25.27
2018-04-23T10:25:27.822Z,25.06
2018-04-23T10:27:56.181Z,24.95
2018-04-23T10:30:25.294Z,25.17
2018-04-23T10:32:53.601Z,25.26
2018-04-23T10:35:21.945Z,25.47
2018-04-23T10:37:50.298Z,25.53
2018-04-23T10:40:18.626Z,25.83
2018-04-23T10:42:46.995Z,25.56
2018-04-23T10:45:15.320Z,25.88
2018-04-23T10:47:43.672Z,25.93
2018-04-23T10:50:12.803Z,25.78
2018-04-23T10:52:41.126Z,25.72
2018-04-23T10:55:09.514Z,25.64
2018-04-23T10:57:37.854Z,25.90
2018-04-23T11:00:06.218Z,25.01
2018-04-23T11:02:34.579Z,24.64
2018-04-23T11:05:02.958Z,24.73
2018-04-23T11:07:32.028Z,24.93
2018-04-23T11:10:00.346Z,24.87
2018-04-23T11:12:28.693Z,25.03
2018-04-23T11:14:57.826Z,25.24
2018-04-23T11:17:26.185Z,24.67
2018-04-23T11:19:54.496Z,24.28
2018-04-23T11:22:22.875Z,24.17
2018-04-23T11:24:51.282Z,24.00
2018-04-23T11:27:19.600Z,24.15
2018-04-23T11:29:47.948Z,23.98
2018-04-23T11:32:17.078Z,24.07
2018-04-23T11:34:45.404Z,23.75
2018-04-23T11:37:13.745Z,23.29
2018-04-23T11:39:42.230Z,22.81
2018-04-23T11:42:10.713Z,22.54
2018-04-23T11:44:39.056Z,22.33
2018-04-23T11:47:08.190Z,22.10
2018-04-23T11:49:36.530Z,21.99
2018-04-23T11:52:04.917Z,21.86
2018-04-23T11:54:33.263Z,21.76
2018-04-23T11:57:01.617Z,21.79
2018-04-23T11:59:29.930Z,21.71
2018-04-23T12:01:58.237Z,21.67
2018-04-23T12:04:26.578Z,21.68
2018-04-23T12:06:54.909Z,21.80
2018-04-23T12:09:23.258Z,21.95
2018-04-23T12:11:51.588Z,22.04
2018-04-23T12:14:19.945Z,22.17
2018-04-23T12:16:48.283Z,22.16
2018-04-23T12:19:16.641Z,22.18
2018-04-23T12:21:45.821Z,22.29
2018-04-23T12:24:14.871Z,22.42
2018-04-23T12:26:43.214Z,22.46
2018-04-23T12:29:12.322Z,22.58
2018-04-23T12:31:40.675Z,22.77
2018-04-23T12:34:09.009Z,22.78
2018-04-23T12:36:37.381Z,22.73
2018-04-23T12:39:06.581Z,22.84
2018-04-23T12:41:34.934Z,22.99
2018-04-23T12:44:03.245Z,23.03
2018-04-23T12:46:31.594Z,23.10
2018-04-23T12:48:59.907Z,23.22
2018-04-23T12:51:28.271Z,23.32
2018-04-23T12:53:56.593Z,23.39
2018-04-23T12:56:24.953Z,23.35
2018-04-23T12:58:53.285Z,23.41
2018-04-23T13:01:21.872Z,23.51
2018-04-23T13:03:50.207Z,23.73
2018-04-23T13:06:24.486Z,23.73
2018-04-23T13:08:52.891Z,24.03
2018-04-23T13:11:21.258Z,24.08
2018-04-23T13:13:49.623Z,24.19
2018-04-23T13:16:17.997Z,24.12
2018-04-23T13:18:47.599Z,24.04
2018-04-23T13:21:15.975Z,23.89
2018-04-23T13:23:45.394Z,23.85
2018-04-23T13:26:14.552Z,23.41
2018-04-23T13:28:42.915Z,23.30
2018-04-23T13:31:12.121Z,23.47
2018-04-23T13:33:40.449Z,23.41
2018-04-23T13:36:09.005Z,23.46
2018-04-23T13:38:37.545Z,23.46
2018-04-23T13:41:07.260Z,23.50
2018-04-23T13:43:37.415Z,23.40
2018-04-23T13:46:05.935Z,23.29
2018-04-23T13:48:35.224Z,23.32
2018-04-23T13:51:05.858Z,23.39
2018-04-23T13:53:35.093Z,23.58
2018-04-23T13:56:04.735Z,23.66
2018-04-23T13:58:33.667Z,23.79
2018-04-23T14:01:02.144Z,23.93
2018-04-23T14:03:30.629Z,23.96
2018-04-23T14:05:58.996Z,23.71
2018-04-23T14:08:27.508Z,23.80
2018-04-23T14:10:55.886Z,23.92
2018-04-23T14:13:25.380Z,23.64
2018-04-23T14:15:53.752Z,23.43
2018-04-23T14:18:22.118Z,23.10
2018-04-23T14:20:50.435Z,22.93
2018-04-23T14:23:18.796Z,22.83
2018-04-23T14:25:47.912Z,22.84
2018-04-23T14:28:16.316Z,22.97
2018-04-23T14:30:44.696Z,22.86
2018-04-23T14:33:14.060Z,22.73
2018-04-23T14:35:43.627Z,22.64
2018-04-23T14:38:12.107Z,22.57
2018-04-23T14:40:40.442Z,22.59
2018-04-23T14:43:08.803Z,22.42
2018-04-23T14:45:37.908Z,22.39
2018-04-23T14:48:06.476Z,22.43
2018-04-23T14:50:35.629Z,22.49
2018-04-23T14:53:04.024Z,22.81
2018-04-23T14:55:32.694Z,23.22
2018-04-23T14:58:01.852Z,23.47
2018-04-23T15:00:30.181Z,23.69
2018-04-23T15:02:58.952Z,23.79
2018-04-23T15:05:32.793Z,23.87
2018-04-23T15:08:01.932Z,23.84
2018-04-23T15:10:30.277Z,23.43
2018-04-23T15:12:59.377Z,23.09
2018-04-23T15:15:28.495Z,22.95
2018-04-23T15:17:56.821Z,22.74
2018-04-23T15:20:25.184Z,22.54
2018-04-23T15:22:53.530Z,22.45
2018-04-23T15:25:21.910Z,22.43
2018-04-23T15:27:50.216Z,22.43
2018-04-23T15:30:18.574Z,22.49
2018-04-23T15:32:47.028Z,22.49
2018-04-23T15:35:15.400Z,22.36
2018-04-23T15:37:43.740Z,22.23
2018-04-23T15:40:12.117Z,22.17
2018-04-23T15:42:40.429Z,22.22
2018-04-23T15:45:09.514Z,22.15
2018-04-23T15:47:38.642Z,22.18
2018-04-23T15:50:07.014Z,22.22
2018-04-23T15:52:35.324Z,22.15
2018-04-23T15:55:03.687Z,22.13
2018-04-23T15:57:32.065Z,22.13
2018-04-23T16:00:00.471Z,22.09
2018-04-23T16:02:28.827Z,22.16
2018-04-23T16:04:57.170Z,22.13
2018-04-23T16:07:25.526Z,22.04
2018-04-23T16:09:54.667Z,21.96
2018-04-23T16:12:23.806Z,21.87
2018-04-23T16:14:52.118Z,21.81
2018-04-23T16:17:20.469Z,21.75
2018-04-23T16:19:48.777Z,21.64
2018-04-23T16:22:17.098Z,21.68
2018-04-23T16:24:45.483Z,21.72
2018-04-23T16:27:13.810Z,21.82
2018-04-23T16:29:43.028Z,22.03
2018-04-23T16:32:12.173Z,22.18
2018-04-23T16:34:41.303Z,22.38
2018-04-23T16:37:09.620Z,22.44
2018-04-23T16:39:38.084Z,22.35
2018-04-23T16:42:06.437Z,22.26
2018-04-23T16:44:39.415Z,22.24
2018-04-23T16:47:03.204Z,22.20
2018-04-23T16:49:31.567Z,22.21
2018-04-23T16:51:59.939Z,22.24
2018-04-23T16:54:28.305Z,22.30
2018-04-23T16:56:57.441Z,22.37
2018-04-23T16:59:25.763Z,22.39
2018-04-23T17:01:54.553Z,22.31
2018-04-23T17:04:22.882Z,22.19
2018-04-23T17:06:51.241Z,21.99
2018-04-23T17:09:20.661Z,21.89
2018-04-23T17:11:49.117Z,21.83
2018-04-23T17:14:17.555Z,21.72
2018-04-23T17:16:45.890Z,21.59
2018-04-23T17:19:14.262Z,21.48
2018-04-23T17:21:42.586Z,21.34
2018-04-23T17:24:11.328Z,21.27
2018-04-23T17:26:39.645Z,21.20
2018-04-23T17:29:08.020Z,21.20
2018-04-23T17:31:36.380Z,21.07
2018-04-23T17:34:04.710Z,20.98
2018-04-23T17:36:33.820Z,20.92
2018-04-23T17:39:02.177Z,20.85
2018-04-23T17:41:30.923Z,20.86
2018-04-23T17:43:59.292Z,20.80
2018-04-23T17:46:27.665Z,20.64
2018-04-23T17:48:56.029Z,20.53
2018-04-23T17:51:24.407Z,20.55
2018-04-23T17:53:52.739Z,20.56
2018-04-23T17:56:21.109Z,20.36
2018-04-23T17:58:49.511Z,20.22
2018-04-23T18:01:17.797Z,20.02
2018-04-23T18:03:46.151Z,19.82
2018-04-23T18:06:14.520Z,19.63
2018-04-23T18:08:42.859Z,19.50
2018-04-23T18:11:11.473Z,19.45
2018-04-23T18:13:39.835Z,19.31
2018-04-23T18:16:08.159Z,19.15
2018-04-23T18:18:37.286Z,19.12
2018-04-23T18:21:05.623Z,19.02
2018-04-23T18:23:34.000Z,18.99
2018-04-23T18:26:02.380Z,18.77
2018-04-23T18:28:31.472Z,18.71
2018-04-23T18:30:59.842Z,18.56
2018-04-23T18:33:28.150Z,18.47
2018-04-23T18:35:57.649Z,18.43
2018-04-23T18:38:26.796Z,18.35
2018-04-23T18:40:55.133Z,18.27
2018-04-23T18:43:24.130Z,18.17
2018-04-23T18:45:52.473Z,17.96
2018-04-23T18:48:20.805Z,17.96
2018-04-23T18:50:49.158Z,17.90
2018-04-23T18:53:17.544Z,17.91
2018-04-23T18:55:45.899Z,17.89
2018-04-23T18:58:15.439Z,17.78
2018-04-23T19:00:43.837Z,17.51
2018-04-23T19:03:13.134Z,17.46
2018-04-23T19:05:41.507Z,17.44
2018-04-23T19:08:09.894Z,17.45
2018-04-23T19:10:38.261Z,17.35
2018-04-23T19:13:06.841Z,17.38
2018-04-23T19:15:35.180Z,17.40
2018-04-23T19:18:04.324Z,17.39
2018-04-23T19:20:33.497Z,17.44
2018-04-23T19:23:01.866Z,17.35
2018-04-23T19:25:30.198Z,17.15
2018-04-23T19:27:58.997Z,17.16
2018-04-23T19:30:28.158Z,17.10
2018-04-23T19:32:56.545Z,17.02
2018-04-23T19:35:24.873Z,17.01
2018-04-23T19:37:53.992Z,16.88
2018-04-23T19:40:22.358Z,16.84
2018-04-23T19:42:51.421Z,16.74
2018-04-23T19:45:20.749Z,16.77
2018-04-23T19:47:49.105Z,16.78
2018-04-23T19:50:19.917Z,16.73
2018-04-23T19:52:48.667Z,16.75
2018-04-23T19:55:17.055Z,16.61
2018-04-23T19:57:46.114Z,16.53
2018-04-23T20:00:16.008Z,16.42
2018-04-23T20:02:45.121Z,16.43
2018-04-23T20:05:14.213Z,16.38
2018-04-23T20:07:43.313Z,16.29
2018-04-23T20:10:12.415Z,16.30
2018-04-23T20:12:40.777Z,16.09
2018-04-23T20:15:11.296Z,15.99
2018-04-23T20:17:40.391Z,16.07
2018-04-23T20:20:09.521Z,15.99
2018-04-23T20:22:37.865Z,15.85
2018-04-23T20:25:07.764Z,15.70
2018-04-23T20:27:36.070Z,15.63
2018-04-23T20:30:05.883Z,15.60
2018-04-23T20:32:35.654Z,15.53
2018-04-23T20:35:04.084Z,15.48
2018-04-23T20:37:33.224Z,15.39
2018-04-23T20:40:01.581Z,15.34
2018-04-23T20:42:29.926Z,15.25
2018-04-23T20:44:59.015Z,15.15
2018-04-23T20:47:28.887Z,15.11
2018-04-23T20:49:57.259Z,15.08
2018-04-23T20:52:25.580Z,15.07
2018-04-23T20:54:53.960Z,14.99
2018-04-23T20:57:23.103Z,14.95
2018-04-23T20:59:51.462Z,14.96
2018-04-23T21:02:19.832Z,14.96
2018-04-23T21:04:48.233Z,14.94
2018-04-23T21:07:16.568Z,14.83
2018-04-23T21:09:45.776Z,14.72
2018-04-23T21:12:14.944Z,14.53
2018-04-23T21:14:43.277Z,14.32
2018-04-23T21:17:11.626Z,14.13
2018-04-23T21:19:39.991Z,14.04
2018-04-23T21:22:09.087Z,14.28
2018-04-23T21:24:38.209Z,14.27
2018-04-23T21:27:06.538Z,14.11
2018-04-23T21:29:36.261Z,14.11
2018-04-23T21:32:05.011Z,14.09
2018-04-23T21:34:33.328Z,14.08
2018-04-23T21:37:01.709Z,14.06
2018-04-23T21:39:30.802Z,13.94
2018-04-23T21:41:59.129Z,13.91
2018-04-23T21:44:27.472Z,13.85
2018-04-23T21:46:56.555Z,13.86
2018-04-23T21:49:24.914Z,13.80
2018-04-23T21:51:53.237Z,13.71
2018-04-23T21:54:21.565Z,13.65
2018-04-23T21:56:49.917Z,13.48
2018-04-23T21:59:18.264Z,13.27
2018-04-23T22:01:47.720Z,13.02
2018-04-23T22:04:16.081Z,12.89
2018-04-23T22:06:44.434Z,12.81
2018-04-23T22:09:12.733Z,12.69
2018-04-23T22:11:41.076Z,12.52
2018-04-23T22:14:10.178Z,12.38
2018-04-23T22:16:38.532Z,12.35
2018-04-23T22:19:07.697Z,12.34
2018-04-23T22:21:36.026Z,12.29
2018-04-23T22:24:04.341Z,12.24
2018-04-23T22:26:32.679Z,12.19
2018-04-23T22:29:01.022Z,12.21
2018-04-23T22:31:29.384Z,12.15
2018-04-23T22:33:57.816Z,12.09
2018-04-23T22:36:26.165Z,12.04
2018-04-23T22:38:54.486Z,12.00
2018-04-23T22:41:22.863Z,11.95
2018-04-23T22:43:51.234Z,11.90
2018-04-23T22:46:19.549Z,11.82
2018-04-23T22:48:47.921Z,11.82
2018-04-23T22:51:16.253Z,11.72
2018-04-23T22:53:45.328Z,11.70
2018-04-23T22:56:13.689Z,11.70
2018-04-23T22:58:42.040Z,11.64
2018-04-23T23:01:10.414Z,11.61
2018-04-23T23:03:38.725Z,11.61
2018-04-23T23:06:07.115Z,11.50
2018-04-23T23:08:35.425Z,11.48
2018-04-23T23:11:03.783Z,11.46
2018-04-23T23:13:32.879Z,11.39
2018-04-23T23:16:01.996Z,11.33
2018-04-23T23:18:30.551Z,11.25
2018-04-23T23:20:59.662Z,11.19
2018-04-23T23:23:27.982Z,11.16
2018-04-23T23:25:57.091Z,11.10
2018-04-23T23:28:25.441Z,11.03
2018-04-23T23:30:53.795Z,11.00
2018-04-23T23:33:22.148Z,10.94
2018-04-23T23:35:51.245Z,10.96
2018-04-23T23:38:20.357Z,10.95
2018-04-23T23:40:48.644Z,10.92
2018-04-23T23:43:16.995Z,10.92
2018-04-23T23:45:46.088Z,10.91
2018-04-23T23:48:15.206Z,10.94
2018-04-23T23:50:43.564Z,10.88
2018-04-23T23:53:12.645Z,10.81
2018-04-23T23:55:40.962Z,10.82
2018-04-23T23:58:09.359Z,10.83
